sensor_id;sensor_type;location;lat;lon;timestamp;pressure;altitude;pressure_sealevel;temperature;humidity
68793;BME280;55778;54.346;10.210;2023-02-12T16:22:13;103318.50;;;6.83;100.00
68793;BME280;55778;54.346;10.210;2023-02-12T16:24:51;103327.22;;;6.91;100.00
68793;BME280;55778;54.346;10.210;2023-02-12T16:27:30;103328.13;;;6.91;100.00
68793;BME280;55778;54.346;10.210;2023-02-12T16:30:03;103322.75;;;6.90;100.00
68793;BME280;55778;54.346;10.210;2023-02-12T16:32:41;103322.75;;;6.90;100.00
68793;BME280;55778;54.346;10.210;2023-02-12T16:40:19;103328.13;;;6.91;100.00
68793;BME280;55778;54.346;10.210;2023-02-12T16:48:05;103331.81;;;6.89;100.00
68793;BME280;55778;54.346;10.210;2023-02-12T16:50:32;103325.34;;;6.93;100.00
68793;BME280;55778;54.346;10.210;2023-02-12T16:53:01;103335.31;;;6.92;100.00
68793;BME280;55778;54.346;10.210;2023-02-12T16:55:27;103336.50;;;6.85;100.00
68793;BME280;55778;54.346;10.210;2023-02-12T16:57:52;103335.59;;;6.85;100.00
68793;BME280;55778;54.346;10.210;2023-02-12T17:00:18;103339.25;;;6.84;100.00
68793;BME280;55778;54.346;10.210;2023-02-12T17:02:45;103346.31;;;6.88;100.00
68793;BME280;55778;54.346;10.210;2023-02-12T17:05:13;103346.25;;;6.89;100.00
68793;BME280;55778;54.346;10.210;2023-02-12T17:07:41;103346.56;;;6.82;100.00
68793;BME280;55778;54.346;10.210;2023-02-12T17:10:11;103342.94;;;6.81;100.00
68793;BME280;55778;54.346;10.210;2023-02-12T17:12:47;103344.88;;;6.79;100.00
68793;BME280;55778;54.346;10.210;2023-02-12T17:15:21;103348.25;;;6.84;100.00
68793;BME280;55778;54.346;10.210;2023-02-12T17:17:51;103338.44;;;6.82;100.00
68793;BME280;55778;54.346;10.210;2023-02-12T17:20:17;103345.66;;;6.81;100.00
68793;BME280;55778;54.346;10.210;2023-02-12T17:22:48;103338.50;;;6.80;100.00
68793;BME280;55778;54.346;10.210;2023-02-12T17:25:15;103333.84;;;6.84;100.00
68793;BME280;55778;54.346;10.210;2023-02-12T17:27:41;103344.19;;;6.73;100.00
68793;BME280;55778;54.346;10.210;2023-02-12T17:30:07;103344.97;;;6.76;100.00
68793;BME280;55778;54.346;10.210;2023-02-12T17:32:33;103349.56;;;6.74;100.00
68793;BME280;55778;54.346;10.210;2023-02-12T17:34:58;103351.25;;;6.77;100.00
68793;BME280;55778;54.346;10.210;2023-02-12T17:37:24;103345.66;;;6.81;100.00
68793;BME280;55778;54.346;10.210;2023-02-12T17:39:50;103350.56;;;6.72;100.00
68793;BME280;55778;54.346;10.210;2023-02-12T17:42:15;103353.00;;;6.79;100.00
68793;BME280;55778;54.346;10.210;2023-02-12T17:44:40;103354.44;;;6.88;100.00
68793;BME280;55778;54.346;10.210;2023-02-12T17:47:06;103352.81;;;6.84;100.00
68793;BME280;55778;54.346;10.210;2023-02-12T17:49:31;103367.41;;;6.80;100.00
68793;BME280;55778;54.346;10.210;2023-02-12T17:51:58;103362.66;;;6.86;100.00
68793;BME280;55778;54.346;10.210;2023-02-12T17:54:23;103364.34;;;6.89;100.00
68793;BME280;55778;54.346;10.210;2023-02-12T17:56:49;103371.72;;;6.85;100.00
68793;BME280;55778;54.346;10.210;2023-02-12T17:59:14;103369.66;;;6.92;100.00
68793;BME280;55778;54.346;10.210;2023-02-12T18:01:39;103359.88;;;6.88;100.00
68793;BME280;55778;54.346;10.210;2023-02-12T18:04:05;103357.50;;;6.79;100.00
68793;BME280;55778;54.346;10.210;2023-02-12T18:06:31;103363.88;;;6.78;100.00
68793;BME280;55778;54.346;10.210;2023-02-12T18:08:57;103363.09;;;6.74;100.00
68793;BME280;55778;54.346;10.210;2023-02-12T18:11:26;103369.75;;;6.89;100.00
68793;BME280;55778;54.346;10.210;2023-02-12T18:13:53;103367.34;;;6.81;100.00
68793;BME280;55778;54.346;10.210;2023-02-12T18:16:20;103367.13;;;6.87;100.00
68793;BME280;55778;54.346;10.210;2023-02-12T18:18:47;103362.69;;;6.85;100.00
68793;BME280;55778;54.346;10.210;2023-02-12T18:21:14;103374.84;;;6.75;100.00
68793;BME280;55778;54.346;10.210;2023-02-12T18:23:39;103370.09;;;6.80;100.00
68793;BME280;55778;54.346;10.210;2023-02-12T18:26:10;103366.53;;;6.79;100.00
68793;BME280;55778;54.346;10.210;2023-02-12T18:28:36;103372.13;;;6.75;100.00
68793;BME280;55778;54.346;10.210;2023-02-12T18:31:02;103377.25;;;6.82;100.00
68793;BME280;55778;54.346;10.210;2023-02-12T18:33:28;103382.03;;;6.76;100.00
68793;BME280;55778;54.346;10.210;2023-02-12T18:36:02;103367.47;;;6.78;100.00
68793;BME280;55778;54.346;10.210;2023-02-12T18:38:28;103371.22;;;6.74;100.00
68793;BME280;55778;54.346;10.210;2023-02-12T18:40:54;103372.94;;;6.77;100.00
68793;BME280;55778;54.346;10.210;2023-02-12T18:43:22;103373.66;;;6.82;100.00
68793;BME280;55778;54.346;10.210;2023-02-12T18:45:48;103376.66;;;6.74;100.00
68793;BME280;55778;54.346;10.210;2023-02-12T18:48:13;103377.59;;;6.73;100.00
68793;BME280;55778;54.346;10.210;2023-02-12T18:50:38;103377.56;;;6.75;100.00
68793;BME280;55778;54.346;10.210;2023-02-12T18:53:04;103373.06;;;6.74;100.00
68793;BME280;55778;54.346;10.210;2023-02-12T18:55:29;103371.06;;;6.79;100.00
68793;BME280;55778;54.346;10.210;2023-02-12T18:57:55;103364.06;;;6.73;100.00
68793;BME280;55778;54.346;10.210;2023-02-12T19:00:20;103361.25;;;6.76;100.00
68793;BME280;55778;54.346;10.210;2023-02-12T19:02:46;103367.34;;;6.81;100.00
68793;BME280;55778;54.346;10.210;2023-02-12T19:05:11;103366.59;;;6.78;100.00
68793;BME280;55778;54.346;10.210;2023-02-12T19:07:37;103363.88;;;6.78;100.00
68793;BME280;55778;54.346;10.210;2023-02-12T19:10:03;103363.09;;;6.74;100.00
68793;BME280;55778;54.346;10.210;2023-02-12T19:12:28;103364.00;;;6.75;100.00
68793;BME280;55778;54.346;10.210;2023-02-12T19:14:54;103364.06;;;6.73;100.00
68793;BME280;55778;54.346;10.210;2023-02-12T19:17:19;103369.59;;;6.70;100.00
68793;BME280;55778;54.346;10.210;2023-02-12T19:19:48;103356.50;;;6.81;100.00
68793;BME280;55778;54.346;10.210;2023-02-12T19:22:14;103362.44;;;6.68;100.00
68793;BME280;55778;54.346;10.210;2023-02-12T19:24:39;103356.63;;;6.78;100.00
68793;BME280;55778;54.346;10.210;2023-02-12T19:27:04;103362.31;;;6.71;100.00
68793;BME280;55778;54.346;10.210;2023-02-12T19:29:30;103359.38;;;6.77;100.00
68793;BME280;55778;54.346;10.210;2023-02-12T19:31:55;103357.56;;;6.77;100.00
68793;BME280;55778;54.346;10.210;2023-02-12T19:34:21;103357.19;;;6.63;100.00
68793;BME280;55778;54.346;10.210;2023-02-12T19:36:49;103348.66;;;6.74;100.00
68793;BME280;55778;54.346;10.210;2023-02-12T19:39:18;103350.28;;;6.79;100.00
68793;BME280;55778;54.346;10.210;2023-02-12T19:41:46;103362.28;;;6.72;100.00
68793;BME280;55778;54.346;10.210;2023-02-12T19:44:15;103361.34;;;6.73;100.00
68793;BME280;55778;54.346;10.210;2023-02-12T19:46:41;103358.97;;;6.64;100.00
68793;BME280;55778;54.346;10.210;2023-02-12T19:49:12;103361.69;;;6.64;100.00
68793;BME280;55778;54.346;10.210;2023-02-12T19:51:38;103361.28;;;6.75;100.00
68793;BME280;55778;54.346;10.210;2023-02-12T19:54:06;103362.72;;;6.60;100.00
68793;BME280;55778;54.346;10.210;2023-02-12T19:56:35;103358.03;;;6.65;100.00
68793;BME280;55778;54.346;10.210;2023-02-12T19:59:02;103367.13;;;6.64;100.00
68793;BME280;55778;54.346;10.210;2023-02-12T20:01:28;103368.81;;;6.67;100.00
68793;BME280;55778;54.346;10.210;2023-02-12T20:03:54;103363.78;;;6.56;100.00
68793;BME280;55778;54.346;10.210;2023-02-12T20:06:22;103365.53;;;6.59;100.00
68793;BME280;55778;54.346;10.210;2023-02-12T20:08:48;103362.09;;;6.54;100.00
68793;BME280;55778;54.346;10.210;2023-02-12T20:11:16;103370.22;;;6.54;100.00
68793;BME280;55778;54.346;10.210;2023-02-12T20:13:42;103371.63;;;6.64;100.00
68793;BME280;55778;54.346;10.210;2023-02-12T20:16:10;103371.47;;;6.68;100.00
68793;BME280;55778;54.346;10.210;2023-02-12T20:18:36;103358.88;;;6.67;100.00
68793;BME280;55778;54.346;10.210;2023-02-12T20:21:13;103365.53;;;6.59;100.00
68793;BME280;55778;54.346;10.210;2023-02-12T20:23:39;103366.44;;;6.58;100.00
68793;BME280;55778;54.346;10.210;2023-02-12T20:26:06;103367.63;;;6.51;100.00
68793;BME280;55778;54.346;10.210;2023-02-12T20:28:33;103367.50;;;6.54;100.00
68793;BME280;55778;54.346;10.210;2023-02-12T20:31:10;103369.94;;;6.61;100.00
68793;BME280;55778;54.346;10.210;2023-02-12T20:33:36;103370.31;;;6.51;100.00
68793;BME280;55778;54.346;10.210;2023-02-12T20:36:03;103371.16;;;6.53;100.00
68793;BME280;55778;54.346;10.210;2023-02-12T20:38:28;103366.44;;;6.58;100.00
68793;BME280;55778;54.346;10.210;2023-02-12T20:40:54;103363.75;;;6.58;100.00
68793;BME280;55778;54.346;10.210;2023-02-12T20:43:19;103371.88;;;6.58;100.00
68793;BME280;55778;54.346;10.210;2023-02-12T20:45:45;103366.56;;;6.55;100.00
68793;BME280;55778;54.346;10.210;2023-02-12T20:48:10;103369.25;;;6.55;100.00
68793;BME280;55778;54.346;10.210;2023-02-12T20:50:35;103359.56;;;6.49;100.00
68793;BME280;55778;54.346;10.210;2023-02-12T20:53:01;103371.41;;;6.47;100.00
68793;BME280;55778;54.346;10.210;2023-02-12T20:55:27;103370.31;;;6.51;100.00
68793;BME280;55778;54.346;10.210;2023-02-12T20:57:52;103372.38;;;6.44;100.00
68793;BME280;55778;54.346;10.210;2023-02-12T21:00:18;103374.09;;;6.47;100.00
68793;BME280;55778;54.346;10.210;2023-02-12T21:02:43;103368.91;;;6.41;100.00
68793;BME280;55778;54.346;10.210;2023-02-12T21:05:11;103369.81;;;6.40;100.00
68793;BME280;55778;54.346;10.210;2023-02-12T21:07:37;103377.84;;;6.43;100.00
68793;BME280;55778;54.346;10.210;2023-02-12T21:10:02;103384.09;;;6.45;100.00
68793;BME280;55778;54.346;10.210;2023-02-12T21:12:28;103373.47;;;6.39;100.00
68793;BME280;55778;54.346;10.210;2023-02-12T21:14:53;103383.31;;;6.41;100.00
68793;BME280;55778;54.346;10.210;2023-02-12T21:17:19;103383.38;;;6.40;100.00
68793;BME280;55778;54.346;10.210;2023-02-12T21:19:45;103380.53;;;6.43;100.00
68793;BME280;55778;54.346;10.210;2023-02-12T21:22:10;103382.66;;;6.35;100.00
68793;BME280;55778;54.346;10.210;2023-02-12T21:24:36;103383.41;;;6.38;100.00
68793;BME280;55778;54.346;10.210;2023-02-12T21:27:01;103379.53;;;6.47;100.00
68793;BME280;55778;54.346;10.210;2023-02-12T21:29:27;103379.97;;;6.35;100.00
68793;BME280;55778;54.346;10.210;2023-02-12T21:31:57;103371.78;;;6.36;100.00
68793;BME280;55778;54.346;10.210;2023-02-12T21:34:23;103383.53;;;6.35;100.00
68793;BME280;55778;54.346;10.210;2023-02-12T21:36:53;103380.13;;;6.30;100.00
68793;BME280;55778;54.346;10.210;2023-02-12T21:39:22;103379.75;;;6.41;100.00
68793;BME280;55778;54.346;10.210;2023-02-12T21:41:54;103378.63;;;6.46;100.00
68793;BME280;55778;54.346;10.210;2023-02-12T21:44:21;103384.22;;;6.42;100.00
68793;BME280;55778;54.346;10.210;2023-02-12T21:46:47;103376.34;;;6.34;100.00
68793;BME280;55778;54.346;10.210;2023-02-12T21:49:14;103374.75;;;6.29;100.00
68793;BME280;55778;54.346;10.210;2023-02-12T21:51:43;103377.31;;;6.33;100.00
68793;BME280;55778;54.346;10.210;2023-02-12T21:54:12;103383.69;;;6.31;100.00
68793;BME280;55778;54.346;10.210;2023-02-12T21:56:40;103370.94;;;6.34;100.00
68793;BME280;55778;54.346;10.210;2023-02-12T21:59:06;103373.75;;;6.31;100.00
68793;BME280;55778;54.346;10.210;2023-02-12T22:01:36;103368.22;;;6.34;100.00
68793;BME280;55778;54.346;10.210;2023-02-12T22:04:04;103370.00;;;6.35;100.00
68793;BME280;55778;54.346;10.210;2023-02-12T22:06:31;103371.94;;;6.32;100.00
68793;BME280;55778;54.346;10.210;2023-02-12T22:09:01;103376.69;;;6.25;100.00
68793;BME280;55778;54.346;10.210;2023-02-12T22:11:27;103377.63;;;6.24;100.00
68793;BME280;55778;54.346;10.210;2023-02-12T22:13:52;103369.19;;;6.33;100.00
68793;BME280;55778;54.346;10.210;2023-02-12T22:16:21;103378.44;;;6.26;100.00
68793;BME280;55778;54.346;10.210;2023-02-12T22:18:47;103370.22;;;6.29;100.00
68793;BME280;55778;54.346;10.210;2023-02-12T22:21:14;103372.16;;;6.26;100.00
68793;BME280;55778;54.346;10.210;2023-02-12T22:23:40;103370.50;;;6.22;100.00
68793;BME280;55778;54.346;10.210;2023-02-12T22:28:37;103370.38;;;6.25;100.00
68793;BME280;55778;54.346;10.210;2023-02-12T22:31:06;103374.03;;;6.24;100.00
68793;BME280;55778;54.346;10.210;2023-02-12T22:33:32;103379.34;;;6.27;100.00
68793;BME280;55778;54.346;10.210;2023-02-12T22:36:04;103372.16;;;6.26;100.00
68793;BME280;55778;54.346;10.210;2023-02-12T22:38:32;103376.13;;;6.40;100.00
68793;BME280;55778;54.346;10.210;2023-02-12T22:40:57;103379.19;;;6.31;100.00
68793;BME280;55778;54.346;10.210;2023-02-12T22:43:23;103381.78;;;6.34;100.00
68793;BME280;55778;54.346;10.210;2023-02-12T22:45:48;103385.47;;;6.32;100.00
68793;BME280;55778;54.346;10.210;2023-02-12T22:48:14;103390.78;;;6.35;100.00
68793;BME280;55778;54.346;10.210;2023-02-12T22:50:39;103388.66;;;6.43;100.00
68793;BME280;55778;54.346;10.210;2023-02-12T22:53:05;103394.56;;;6.29;100.00
68793;BME280;55778;54.346;10.210;2023-02-12T22:55:30;103395.41;;;6.31;100.00
68793;BME280;55778;54.346;10.210;2023-02-12T22:57:55;103394.63;;;6.28;100.00
68793;BME280;55778;54.346;10.210;2023-02-12T23:00:21;103394.31;;;6.37;100.00
68793;BME280;55778;54.346;10.210;2023-02-12T23:02:46;103390.78;;;6.35;100.00
68793;BME280;55778;54.346;10.210;2023-02-12T23:05:12;103390.06;;;6.30;100.00
68793;BME280;55778;54.346;10.210;2023-02-12T23:07:37;103383.84;;;6.26;100.00
68793;BME280;55778;54.346;10.210;2023-02-12T23:10:03;103386.41;;;6.31;99.79
68793;BME280;55778;54.346;10.210;2023-02-12T23:12:28;103392.94;;;6.25;100.00
68793;BME280;55778;54.346;10.210;2023-02-12T23:14:54;103389.84;;;6.36;99.46
68793;BME280;55778;54.346;10.210;2023-02-12T23:17:19;103387.34;;;6.30;99.77
68793;BME280;55778;54.346;10.210;2023-02-12T23:19:44;103381.56;;;6.40;99.49
68793;BME280;55778;54.346;10.210;2023-02-12T23:22:10;103390.00;;;6.31;99.88
68793;BME280;55778;54.346;10.210;2023-02-12T23:24:35;103380.06;;;6.32;99.58
68793;BME280;55778;54.346;10.210;2023-02-12T23:27:01;103382.16;;;6.24;99.88
68793;BME280;55778;54.346;10.210;2023-02-12T23:29:26;103376.56;;;6.28;98.66
68793;BME280;55778;54.346;10.210;2023-02-12T23:31:52;103372.75;;;6.34;97.87
68793;BME280;55778;54.346;10.210;2023-02-12T23:34:17;103375.13;;;6.43;93.41
68793;BME280;55778;54.346;10.210;2023-02-12T23:36:44;103376.81;;;6.47;92.05
68793;BME280;55778;54.346;10.210;2023-02-12T23:39:11;103390.63;;;6.39;92.96
68793;BME280;55778;54.346;10.210;2023-02-12T23:41:36;103388.09;;;6.35;94.31
68793;BME280;55778;54.346;10.210;2023-02-12T23:44:02;103380.81;;;6.35;95.09
68793;BME280;55778;54.346;10.210;2023-02-12T23:46:28;103379.13;;;6.33;95.72
68793;BME280;55778;54.346;10.210;2023-02-12T23:48:53;103377.34;;;6.32;96.16
68793;BME280;55778;54.346;10.210;2023-02-12T23:51:19;103373.91;;;6.27;96.53
68793;BME280;55778;54.346;10.210;2023-02-12T23:53:44;103378.00;;;6.38;96.49
68793;BME280;55778;54.346;10.210;2023-02-12T23:56:09;103363.88;;;6.30;96.73
68793;BME280;55778;54.346;10.210;2023-02-12T23:58:35;103374.81;;;6.27;96.55
